WetterOnline ( https://www.wetteronline.de )

Wetter aktuell W��rzburg

Aktuelles Wetter: Würzburg (272m)

6-stündlich | Neueste Meldungen
Ortszeit Temperatur Wetter
Mo, 05.12. 19:00 3.6° C bedeckt
Mo, 05.12. 13:00 3.5° C Sprühregen
Mo, 05.12. 7:00 3.1° C bedeckt
Mo, 05.12. 1:00 2.7° C bedeckt
So, 04.12. 19:00 3.3° C bedeckt
So, 04.12. 13:00 3.3° C bedeckt
So, 04.12. 7:00 1.6° C bewölkt
So, 04.12. 1:00 1.2° C bedeckt
Ortszeit Temperatur Wetter
Mo, 05.12. 21:00 2.6° C bewölkt
Mo, 05.12. 20:50 2.6° C bewölkt
Mo, 05.12. 20:40 2.9° C bedeckt
Mo, 05.12. 20:30 3.4° C bedeckt
Mo, 05.12. 20:20 3.4° C bedeckt
Mo, 05.12. 20:10 3.3° C bedeckt
Mo, 05.12. 20:00 3.5° C bedeckt
Mo, 05.12. 19:30 3.7° C bedeckt
Mo, 05.12. 19:00 3.6° C bedeckt
Mo, 05.12. 18:30 3.7° C bedeckt
Mo, 05.12. 18:00 3.7° C Sprühregen
Ortszeit Relative Feuchte Sichtweite
Mo, 05.12. 19:00 92% 26 km
Mo, 05.12. 13:00 94% 8 km
Mo, 05.12. 7:00 96% 6 km
Mo, 05.12. 1:00 94% 7 km
So, 04.12. 19:00 87% 30 km
So, 04.12. 13:00 85% 45 km
So, 04.12. 7:00 90% 23 km
So, 04.12. 1:00 85% 30 km
Ortszeit Relative Feuchte Sichtweite
Mo, 05.12. 21:00 93% 18 km
Mo, 05.12. 20:50 93% -
Mo, 05.12. 20:40 92% -
Mo, 05.12. 20:30 91% 27 km
Mo, 05.12. 20:20 91% -
Mo, 05.12. 20:10 94% -
Mo, 05.12. 20:00 92% 21 km
Mo, 05.12. 19:30 90% 30 km
Mo, 05.12. 19:00 92% 26 km
Mo, 05.12. 18:30 90% 35 km
Mo, 05.12. 18:00 91% 30 km
Ortszeit Niederschlagsmenge Niederschlagsart
Mo, 05.12. 19:00 0.1 l/m2 in 12 Std. Regen
Mo, 05.12. 13:00 0.1 l/m2 in 6 Std. Sprühregen
Mo, 05.12. 7:00 0.4 l/m2 in 12 Std. Sprühregen
Mo, 05.12. 1:00 0.4 l/m2 in 6 Std. Regen
So, 04.12. 19:00 0.1 l/m2 in 12 Std. Regen
So, 04.12. 13:00 0.0 l/m2 in 6 Std. -
So, 04.12. 7:00 0.0 l/m2 in 12 Std. -
So, 04.12. 1:00 0.0 l/m2 in 6 Std. -
Ortszeit Niederschlagsmenge Niederschlagsart
Mo, 05.12. 21:00 0.0 l/m2 in 1 Std. -
Mo, 05.12. 20:50 keine Meldung -
Mo, 05.12. 20:40 keine Meldung -
Mo, 05.12. 20:30 0.0 l/m2 in 30 Min -
Mo, 05.12. 20:20 keine Meldung -
Mo, 05.12. 20:10 keine Meldung -
Mo, 05.12. 20:00 0.0 l/m2 in 1 Std. -
Mo, 05.12. 19:30 0.0 l/m2 in 30 Min -
Mo, 05.12. 19:00 <0.05 l/m2 in 1 Std. Regen
Mo, 05.12. 18:30 <0.05 l/m2 in 30 Min Schneeregen
Mo, 05.12. 18:00 <0.05 l/m2 in 1 Std. Regen
Ortszeit Stärke Spitze Richtung
km/h Bft. km/h Grad Sektor
Mo, 05.12. 19:00 9 2 19 220° SW
Mo, 05.12. 13:00 11 2 18 210° SW
Mo, 05.12. 7:00 11 2 18 220° SW
Mo, 05.12. 1:00 6 1 26 20° N
So, 04.12. 19:00 15 3 26 30° NO
So, 04.12. 13:00 14 3 29 60° NO
So, 04.12. 7:00 14 3 29 60° NO
So, 04.12. 1:00 19 3 28 80° O
Ortszeit Stärke Spitze Richtung
km/h Bft. km/h Grad Sektor
Mo, 05.12. 21:00 9 2 13 230° SW
Mo, 05.12. 20:50 9 2 - 230° SW
Mo, 05.12. 20:40 9 2 - 230° SW
Mo, 05.12. 20:30 7 2 11 200° S
Mo, 05.12. 20:20 7 2 - 200° S
Mo, 05.12. 20:10 7 2 - 170° S
Mo, 05.12. 20:00 4 1 14 210° SW
Mo, 05.12. 19:30 9 2 15 250° W
Mo, 05.12. 19:00 9 2 13 220° SW
Mo, 05.12. 18:30 6 1 13 250° W
Mo, 05.12. 18:00 11 2 14 250° W
Ortszeit Untergrenze Bedeckung Gattung
total tief tief mittel hoch
Mo, 05.12. 19:00 840 m 8/8 8/8 - - -
Mo, 05.12. 13:00 150 m 8/8 8/8 - - -
Mo, 05.12. 7:00 90 m 8/8 8/8 - - -
Mo, 05.12. 1:00 270 m 8/8 8/8 - - -
So, 04.12. 19:00 360 m 8/8 8/8 - - -
So, 04.12. 13:00 300 m 8/8 8/8 - - -
So, 04.12. 7:00 270 m 7/8 7/8 - - -
So, 04.12. 1:00 300 m 8/8 8/8 - - -
Ortszeit Bedeckungsgrad in Achtel und Wolkenuntergrenze
Mo, 05.12. 21:00 1(510m) 5(2100m) 8(6000m)
Mo, 05.12. 20:50 1(510m) 5(2100m) 8(6000m)
Mo, 05.12. 20:40 8
Mo, 05.12. 20:30 8(1020m) 8(1800m)
Mo, 05.12. 20:20 8(1020m) 8(1800m)
Mo, 05.12. 20:10 8
Mo, 05.12. 20:00 8(960m)
Mo, 05.12. 19:30 8(900m) 8(1800m)
Mo, 05.12. 19:00 6(840m) 8(990m)
Mo, 05.12. 18:30 3(510m) 8(870m)
Mo, 05.12. 18:00 7(540m) 8(660m)
Ortszeit Luftdruck NN (hPa) Tendenz (hPa in 3 Std.)
Mo, 05.12. 19:00 1021 + 0,6
Mo, 05.12. 13:00 1020 + 0,4
Mo, 05.12. 7:00 1018 + 1,2
Mo, 05.12. 1:00 1016 + 0,6
So, 04.12. 19:00 1014 + 0,1
So, 04.12. 13:00 1015 - 1,3
So, 04.12. 7:00 1016 - 0,2
So, 04.12. 1:00 1018 - 0,9
Ortszeit Luftdruck NN (hPa) Tendenz (hPa in 3 Std.)
Mo, 05.12. 21:00 1021 + 0,3
Mo, 05.12. 20:50 1021 keine Meldung
Mo, 05.12. 20:40 1021 keine Meldung
Mo, 05.12. 20:30 1021 + 0,3
Mo, 05.12. 20:20 1021 keine Meldung
Mo, 05.12. 20:10 1021 keine Meldung
Mo, 05.12. 20:00 1021 + 0,3
Mo, 05.12. 19:30 1021 + 0,4
Mo, 05.12. 19:00 1021 + 0,6
Mo, 05.12. 18:30 1021 + 0,6
Mo, 05.12. 18:00 1021 + 0,7
Ortszeit Schneehöhe (cm)
Mo, 05.12. 19:00 0
Mo, 05.12. 13:00 0
Mo, 05.12. 7:00 0
Mo, 05.12. 1:00 0
So, 04.12. 19:00 0
So, 04.12. 13:00 0
So, 04.12. 7:00 0
So, 04.12. 1:00 0
Ortszeit Schneehöhe (cm)
Mo, 05.12. 21:00 0
Mo, 05.12. 20:50 0
Mo, 05.12. 20:40 0
Mo, 05.12. 20:30 0
Mo, 05.12. 20:20 0
Mo, 05.12. 20:10 0
Mo, 05.12. 20:00 0
Mo, 05.12. 19:30 0
Mo, 05.12. 19:00 0
Mo, 05.12. 18:30 0
Mo, 05.12. 18:00 0
Link zu dieser Seite / Seite empfehlen

Das Wetter in ...